sensor_id;sensor_type;location;lat;lon;timestamp;P1;durP1;ratioP1;P2;durP2;ratioP2
44670;SDS011;48397;53.016;-2.260;2022-08-19T00:02:15;18.17;;;4.40;;
44670;SDS011;48397;53.016;-2.260;2022-08-19T00:07:13;7.43;;;2.90;;
44670;SDS011;48397;53.016;-2.260;2022-08-19T00:09:43;8.93;;;3.85;;
44670;SDS011;48397;53.016;-2.260;2022-08-19T00:17:08;5.72;;;2.45;;
44670;SDS011;48397;53.016;-2.260;2022-08-19T00:19:36;7.15;;;3.58;;
44670;SDS011;48397;53.016;-2.260;2022-08-19T00:22:06;11.20;;;4.47;;
44670;SDS011;48397;53.016;-2.260;2022-08-19T00:24:35;12.18;;;3.90;;
44670;SDS011;48397;53.016;-2.260;2022-08-19T00:27:04;16.15;;;4.57;;
44670;SDS011;48397;53.016;-2.260;2022-08-19T00:29:52;10.02;;;3.42;;
44670;SDS011;48397;53.016;-2.260;2022-08-19T00:32:20;11.68;;;3.63;;
44670;SDS011;48397;53.016;-2.260;2022-08-19T00:34:49;10.82;;;2.92;;
44670;SDS011;48397;53.016;-2.260;2022-08-19T00:37:21;12.82;;;4.72;;
44670;SDS011;48397;53.016;-2.260;2022-08-19T00:39:50;8.38;;;3.00;;
44670;SDS011;48397;53.016;-2.260;2022-08-19T00:42:18;16.35;;;3.40;;
44670;SDS011;48397;53.016;-2.260;2022-08-19T00:44:47;10.20;;;3.40;;
44670;SDS011;48397;53.016;-2.260;2022-08-19T00:47:16;10.00;;;2.85;;
44670;SDS011;48397;53.016;-2.260;2022-08-19T00:49:49;15.60;;;3.08;;
44670;SDS011;48397;53.016;-2.260;2022-08-19T00:52:25;8.55;;;3.20;;
44670;SDS011;48397;53.016;-2.260;2022-08-19T00:54:58;8.20;;;2.28;;
44670;SDS011;48397;53.016;-2.260;2022-08-19T00:57:28;11.05;;;2.88;;
44670;SDS011;48397;53.016;-2.260;2022-08-19T00:59:59;9.43;;;2.75;;
44670;SDS011;48397;53.016;-2.260;2022-08-19T01:02:31;13.48;;;3.33;;
44670;SDS011;48397;53.016;-2.260;2022-08-19T01:05:01;15.20;;;3.20;;
44670;SDS011;48397;53.016;-2.260;2022-08-19T01:07:32;13.60;;;3.25;;
44670;SDS011;48397;53.016;-2.260;2022-08-19T01:10:08;12.48;;;3.08;;
44670;SDS011;48397;53.016;-2.260;2022-08-19T01:12:43;6.75;;;2.30;;
44670;SDS011;48397;53.016;-2.260;2022-08-19T01:15:12;16.17;;;2.97;;
44670;SDS011;48397;53.016;-2.260;2022-08-19T01:17:45;15.55;;;3.65;;
44670;SDS011;48397;53.016;-2.260;2022-08-19T01:20:17;13.32;;;2.53;;
44670;SDS011;48397;53.016;-2.260;2022-08-19T01:22:48;14.02;;;2.53;;
44670;SDS011;48397;53.016;-2.260;2022-08-19T01:25:23;15.75;;;2.80;;
44670;SDS011;48397;53.016;-2.260;2022-08-19T01:28:23;10.43;;;2.47;;
44670;SDS011;48397;53.016;-2.260;2022-08-19T01:31:07;15.98;;;2.70;;
44670;SDS011;48397;53.016;-2.260;2022-08-19T01:36:44;8.82;;;2.22;;
44670;SDS011;48397;53.016;-2.260;2022-08-19T01:39:19;14.48;;;2.53;;
44670;SDS011;48397;53.016;-2.260;2022-08-19T01:41:49;15.98;;;4.18;;
44670;SDS011;48397;53.016;-2.260;2022-08-19T01:44:19;10.13;;;3.08;;
44670;SDS011;48397;53.016;-2.260;2022-08-19T01:46:50;13.52;;;2.85;;
44670;SDS011;48397;53.016;-2.260;2022-08-19T01:49:20;14.05;;;3.22;;
44670;SDS011;48397;53.016;-2.260;2022-08-19T01:51:49;16.60;;;3.65;;
44670;SDS011;48397;53.016;-2.260;2022-08-19T01:54:18;11.43;;;3.40;;
44670;SDS011;48397;53.016;-2.260;2022-08-19T01:56:55;13.18;;;3.25;;
44670;SDS011;48397;53.016;-2.260;2022-08-19T01:59:28;20.98;;;3.72;;
44670;SDS011;48397;53.016;-2.260;2022-08-19T02:01:57;8.55;;;2.80;;
44670;SDS011;48397;53.016;-2.260;2022-08-19T02:04:25;13.95;;;3.03;;
44670;SDS011;48397;53.016;-2.260;2022-08-19T02:06:53;17.55;;;3.20;;
44670;SDS011;48397;53.016;-2.260;2022-08-19T02:11:48;10.10;;;2.75;;
44670;SDS011;48397;53.016;-2.260;2022-08-19T02:14:16;16.95;;;3.75;;
44670;SDS011;48397;53.016;-2.260;2022-08-19T02:19:11;13.82;;;2.78;;
44670;SDS011;48397;53.016;-2.260;2022-08-19T02:21:40;18.88;;;4.57;;
44670;SDS011;48397;53.016;-2.260;2022-08-19T02:24:07;13.85;;;2.85;;
44670;SDS011;48397;53.016;-2.260;2022-08-19T02:26:35;9.98;;;3.38;;
44670;SDS011;48397;53.016;-2.260;2022-08-19T02:29:03;11.07;;;2.90;;
44670;SDS011;48397;53.016;-2.260;2022-08-19T02:31:31;12.80;;;2.80;;
44670;SDS011;48397;53.016;-2.260;2022-08-19T02:33:59;12.65;;;2.72;;
44670;SDS011;48397;53.016;-2.260;2022-08-19T02:36:27;14.63;;;3.00;;
44670;SDS011;48397;53.016;-2.260;2022-08-19T02:38:56;12.80;;;2.72;;
44670;SDS011;48397;53.016;-2.260;2022-08-19T02:41:29;13.02;;;3.33;;
44670;SDS011;48397;53.016;-2.260;2022-08-19T02:44:00;14.57;;;3.28;;
44670;SDS011;48397;53.016;-2.260;2022-08-19T02:46:49;19.02;;;3.25;;
44670;SDS011;48397;53.016;-2.260;2022-08-19T02:49:18;13.18;;;3.13;;
44670;SDS011;48397;53.016;-2.260;2022-08-19T02:51:46;15.13;;;2.95;;
44670;SDS011;48397;53.016;-2.260;2022-08-19T02:54:14;12.45;;;2.80;;
44670;SDS011;48397;53.016;-2.260;2022-08-19T02:56:43;11.43;;;2.63;;
44670;SDS011;48397;53.016;-2.260;2022-08-19T02:59:12;13.23;;;2.88;;
44670;SDS011;48397;53.016;-2.260;2022-08-19T03:01:40;11.75;;;3.20;;
44670;SDS011;48397;53.016;-2.260;2022-08-19T03:04:10;12.52;;;2.80;;
44670;SDS011;48397;53.016;-2.260;2022-08-19T03:06:40;13.95;;;2.80;;
44670;SDS011;48397;53.016;-2.260;2022-08-19T03:09:10;11.10;;;3.70;;
44670;SDS011;48397;53.016;-2.260;2022-08-19T03:11:38;17.98;;;3.30;;
44670;SDS011;48397;53.016;-2.260;2022-08-19T03:14:07;12.30;;;3.25;;
44670;SDS011;48397;53.016;-2.260;2022-08-19T03:16:43;14.23;;;3.20;;
44670;SDS011;48397;53.016;-2.260;2022-08-19T03:19:15;9.45;;;2.97;;
44670;SDS011;48397;53.016;-2.260;2022-08-19T03:21:44;18.10;;;4.00;;
44670;SDS011;48397;53.016;-2.260;2022-08-19T03:24:13;19.65;;;3.95;;
44670;SDS011;48397;53.016;-2.260;2022-08-19T03:26:43;15.50;;;4.03;;
44670;SDS011;48397;53.016;-2.260;2022-08-19T03:29:13;15.23;;;3.38;;
44670;SDS011;48397;53.016;-2.260;2022-08-19T03:31:56;16.63;;;3.83;;
44670;SDS011;48397;53.016;-2.260;2022-08-19T03:34:32;17.50;;;3.90;;
44670;SDS011;48397;53.016;-2.260;2022-08-19T03:37:03;14.25;;;3.40;;
44670;SDS011;48397;53.016;-2.260;2022-08-19T03:39:33;22.02;;;4.78;;
44670;SDS011;48397;53.016;-2.260;2022-08-19T03:42:03;15.00;;;3.42;;
44670;SDS011;48397;53.016;-2.260;2022-08-19T03:44:51;10.90;;;3.63;;
44670;SDS011;48397;53.016;-2.260;2022-08-19T03:47:19;16.75;;;4.15;;
44670;SDS011;48397;53.016;-2.260;2022-08-19T03:52:14;14.82;;;3.92;;
44670;SDS011;48397;53.016;-2.260;2022-08-19T03:54:42;19.90;;;5.32;;
44670;SDS011;48397;53.016;-2.260;2022-08-19T03:57:10;18.45;;;5.22;;
44670;SDS011;48397;53.016;-2.260;2022-08-19T04:04:40;17.23;;;5.47;;
44670;SDS011;48397;53.016;-2.260;2022-08-19T04:07:11;19.67;;;5.93;;
44670;SDS011;48397;53.016;-2.260;2022-08-19T04:09:42;13.38;;;4.45;;
44670;SDS011;48397;53.016;-2.260;2022-08-19T04:12:11;13.32;;;4.35;;
44670;SDS011;48397;53.016;-2.260;2022-08-19T04:14:38;14.43;;;3.95;;
44670;SDS011;48397;53.016;-2.260;2022-08-19T04:17:06;13.32;;;3.75;;
44670;SDS011;48397;53.016;-2.260;2022-08-19T04:19:34;17.77;;;4.22;;
44670;SDS011;48397;53.016;-2.260;2022-08-19T04:22:03;15.18;;;4.07;;
44670;SDS011;48397;53.016;-2.260;2022-08-19T04:24:31;9.93;;;3.63;;
44670;SDS011;48397;53.016;-2.260;2022-08-19T04:27:00;14.85;;;3.67;;
44670;SDS011;48397;53.016;-2.260;2022-08-19T04:29:29;11.15;;;3.40;;
44670;SDS011;48397;53.016;-2.260;2022-08-19T04:31:57;13.52;;;3.67;;
44670;SDS011;48397;53.016;-2.260;2022-08-19T04:34:35;11.90;;;3.30;;
44670;SDS011;48397;53.016;-2.260;2022-08-19T04:37:24;14.57;;;3.78;;
44670;SDS011;48397;53.016;-2.260;2022-08-19T04:40:02;17.08;;;4.22;;
44670;SDS011;48397;53.016;-2.260;2022-08-19T04:42:51;16.25;;;4.05;;
44670;SDS011;48397;53.016;-2.260;2022-08-19T04:45:20;10.98;;;3.47;;
44670;SDS011;48397;53.016;-2.260;2022-08-19T04:47:49;12.20;;;3.63;;
44670;SDS011;48397;53.016;-2.260;2022-08-19T04:53:07;16.85;;;4.43;;
44670;SDS011;48397;53.016;-2.260;2022-08-19T04:55:38;19.25;;;4.00;;
44670;SDS011;48397;53.016;-2.260;2022-08-19T04:58:07;11.10;;;3.22;;
44670;SDS011;48397;53.016;-2.260;2022-08-19T05:00:37;8.38;;;3.00;;
44670;SDS011;48397;53.016;-2.260;2022-08-19T05:03:06;9.57;;;3.28;;
44670;SDS011;48397;53.016;-2.260;2022-08-19T05:05:37;11.20;;;3.15;;
44670;SDS011;48397;53.016;-2.260;2022-08-19T05:08:12;14.63;;;3.60;;
44670;SDS011;48397;53.016;-2.260;2022-08-19T05:10:41;13.15;;;3.72;;
44670;SDS011;48397;53.016;-2.260;2022-08-19T05:13:09;12.25;;;3.30;;
44670;SDS011;48397;53.016;-2.260;2022-08-19T05:15:37;17.55;;;4.07;;
44670;SDS011;48397;53.016;-2.260;2022-08-19T05:18:05;12.45;;;3.70;;
44670;SDS011;48397;53.016;-2.260;2022-08-19T05:20:52;12.60;;;3.70;;
44670;SDS011;48397;53.016;-2.260;2022-08-19T05:23:38;13.18;;;3.78;;
44670;SDS011;48397;53.016;-2.260;2022-08-19T05:26:06;9.27;;;3.80;;
44670;SDS011;48397;53.016;-2.260;2022-08-19T05:28:36;12.10;;;4.18;;
44670;SDS011;48397;53.016;-2.260;2022-08-19T05:31:03;18.17;;;4.05;;
44670;SDS011;48397;53.016;-2.260;2022-08-19T05:33:31;17.33;;;4.80;;
44670;SDS011;48397;53.016;-2.260;2022-08-19T05:36:00;6.97;;;3.40;;
44670;SDS011;48397;53.016;-2.260;2022-08-19T05:38:28;8.40;;;3.10;;
44670;SDS011;48397;53.016;-2.260;2022-08-19T05:43:24;15.48;;;4.10;;
44670;SDS011;48397;53.016;-2.260;2022-08-19T05:45:52;23.70;;;5.78;;
44670;SDS011;48397;53.016;-2.260;2022-08-19T05:48:20;18.13;;;5.07;;
44670;SDS011;48397;53.016;-2.260;2022-08-19T05:50:47;16.50;;;5.03;;
44670;SDS011;48397;53.016;-2.260;2022-08-19T05:53:17;13.88;;;5.07;;
44670;SDS011;48397;53.016;-2.260;2022-08-19T05:55:45;16.40;;;5.60;;
44670;SDS011;48397;53.016;-2.260;2022-08-19T05:58:13;10.57;;;3.95;;
44670;SDS011;48397;53.016;-2.260;2022-08-19T06:00:42;14.52;;;4.03;;
44670;SDS011;48397;53.016;-2.260;2022-08-19T06:03:11;12.88;;;4.10;;
44670;SDS011;48397;53.016;-2.260;2022-08-19T06:05:39;11.57;;;3.30;;
44670;SDS011;48397;53.016;-2.260;2022-08-19T06:08:17;22.33;;;5.63;;
44670;SDS011;48397;53.016;-2.260;2022-08-19T06:10:46;16.90;;;4.22;;
44670;SDS011;48397;53.016;-2.260;2022-08-19T06:13:13;14.27;;;4.15;;
44670;SDS011;48397;53.016;-2.260;2022-08-19T06:15:41;17.33;;;4.10;;
44670;SDS011;48397;53.016;-2.260;2022-08-19T06:18:11;19.85;;;4.30;;
44670;SDS011;48397;53.016;-2.260;2022-08-19T06:20:39;12.02;;;3.60;;
44670;SDS011;48397;53.016;-2.260;2022-08-19T06:23:22;10.32;;;3.45;;
44670;SDS011;48397;53.016;-2.260;2022-08-19T06:25:50;11.68;;;3.83;;
44670;SDS011;48397;53.016;-2.260;2022-08-19T06:28:18;9.48;;;3.42;;
44670;SDS011;48397;53.016;-2.260;2022-08-19T06:30:46;11.30;;;3.58;;
44670;SDS011;48397;53.016;-2.260;2022-08-19T06:33:14;16.27;;;3.58;;
44670;SDS011;48397;53.016;-2.260;2022-08-19T06:35:41;17.55;;;3.80;;
44670;SDS011;48397;53.016;-2.260;2022-08-19T06:38:14;11.40;;;3.90;;
44670;SDS011;48397;53.016;-2.260;2022-08-19T06:40:42;15.07;;;3.78;;
44670;SDS011;48397;53.016;-2.260;2022-08-19T06:43:15;14.32;;;3.25;;
44670;SDS011;48397;53.016;-2.260;2022-08-19T06:45:44;15.63;;;3.78;;
44670;SDS011;48397;53.016;-2.260;2022-08-19T06:48:13;14.27;;;3.78;;
44670;SDS011;48397;53.016;-2.260;2022-08-19T06:50:44;6.47;;;3.20;;
44670;SDS011;48397;53.016;-2.260;2022-08-19T06:53:11;14.88;;;3.25;;
44670;SDS011;48397;53.016;-2.260;2022-08-19T06:55:40;18.52;;;3.60;;
44670;SDS011;48397;53.016;-2.260;2022-08-19T06:58:08;16.77;;;3.40;;
44670;SDS011;48397;53.016;-2.260;2022-08-19T07:03:04;14.90;;;3.33;;
44670;SDS011;48397;53.016;-2.260;2022-08-19T07:05:39;14.18;;;3.50;;
44670;SDS011;48397;53.016;-2.260;2022-08-19T07:08:12;9.63;;;3.40;;
44670;SDS011;48397;53.016;-2.260;2022-08-19T07:10:44;13.25;;;2.97;;
44670;SDS011;48397;53.016;-2.260;2022-08-19T07:13:12;19.90;;;3.83;;
44670;SDS011;48397;53.016;-2.260;2022-08-19T07:15:40;15.07;;;3.50;;
44670;SDS011;48397;53.016;-2.260;2022-08-19T07:18:08;19.60;;;3.53;;
44670;SDS011;48397;53.016;-2.260;2022-08-19T07:20:38;11.98;;;3.78;;
44670;SDS011;48397;53.016;-2.260;2022-08-19T07:23:08;16.52;;;3.95;;
44670;SDS011;48397;53.016;-2.260;2022-08-19T07:25:42;11.68;;;3.33;;
44670;SDS011;48397;53.016;-2.260;2022-08-19T07:28:19;13.88;;;3.70;;
44670;SDS011;48397;53.016;-2.260;2022-08-19T07:30:51;15.75;;;3.83;;
44670;SDS011;48397;53.016;-2.260;2022-08-19T07:33:19;16.17;;;3.53;;
44670;SDS011;48397;53.016;-2.260;2022-08-19T07:35:47;14.55;;;3.13;;
44670;SDS011;48397;53.016;-2.260;2022-08-19T07:38:16;18.65;;;3.95;;
44670;SDS011;48397;53.016;-2.260;2022-08-19T07:40:44;13.00;;;4.05;;
44670;SDS011;48397;53.016;-2.260;2022-08-19T07:43:13;9.88;;;3.03;;
44670;SDS011;48397;53.016;-2.260;2022-08-19T07:45:44;13.45;;;3.35;;
44670;SDS011;48397;53.016;-2.260;2022-08-19T07:48:14;14.80;;;3.00;;
44670;SDS011;48397;53.016;-2.260;2022-08-19T07:50:42;12.45;;;3.13;;
44670;SDS011;48397;53.016;-2.260;2022-08-19T07:53:10;19.92;;;4.07;;
44670;SDS011;48397;53.016;-2.260;2022-08-19T07:55:39;12.43;;;2.53;;
44670;SDS011;48397;53.016;-2.260;2022-08-19T07:58:14;17.63;;;3.22;;
44670;SDS011;48397;53.016;-2.260;2022-08-19T08:00:45;8.50;;;2.28;;
44670;SDS011;48397;53.016;-2.260;2022-08-19T08:03:14;9.77;;;2.42;;
44670;SDS011;48397;53.016;-2.260;2022-08-19T08:05:43;9.52;;;2.35;;
44670;SDS011;48397;53.016;-2.260;2022-08-19T08:08:30;10.57;;;2.63;;
44670;SDS011;48397;53.016;-2.260;2022-08-19T08:10:59;15.30;;;2.88;;
44670;SDS011;48397;53.016;-2.260;2022-08-19T08:13:27;16.45;;;3.38;;
44670;SDS011;48397;53.016;-2.260;2022-08-19T08:15:55;20.48;;;3.30;;
44670;SDS011;48397;53.016;-2.260;2022-08-19T08:18:24;14.65;;;3.05;;
44670;SDS011;48397;53.016;-2.260;2022-08-19T08:20:56;9.30;;;2.55;;
44670;SDS011;48397;53.016;-2.260;2022-08-19T08:23:25;10.48;;;2.70;;
44670;SDS011;48397;53.016;-2.260;2022-08-19T08:25:54;15.32;;;2.70;;
44670;SDS011;48397;53.016;-2.260;2022-08-19T08:28:24;25.55;;;3.15;;
44670;SDS011;48397;53.016;-2.260;2022-08-19T08:30:56;16.48;;;3.20;;
44670;SDS011;48397;53.016;-2.260;2022-08-19T08:33:25;15.05;;;2.92;;
44670;SDS011;48397;53.016;-2.260;2022-08-19T08:36:02;16.55;;;3.03;;
44670;SDS011;48397;53.016;-2.260;2022-08-19T08:38:33;17.23;;;2.60;;
44670;SDS011;48397;53.016;-2.260;2022-08-19T08:41:12;17.60;;;2.67;;
44670;SDS011;48397;53.016;-2.260;2022-08-19T08:46:19;11.52;;;2.72;;
44670;SDS011;48397;53.016;-2.260;2022-08-19T08:51:27;20.35;;;3.28;;
44670;SDS011;48397;53.016;-2.260;2022-08-19T08:54:07;13.88;;;2.95;;
44670;SDS011;48397;53.016;-2.260;2022-08-19T08:56:39;19.15;;;2.85;;
44670;SDS011;48397;53.016;-2.260;2022-08-19T08:59:14;7.93;;;2.00;;
44670;SDS011;48397;53.016;-2.260;2022-08-19T09:01:49;17.65;;;2.85;;
44670;SDS011;48397;53.016;-2.260;2022-08-19T09:09:57;14.10;;;2.97;;
44670;SDS011;48397;53.016;-2.260;2022-08-19T09:16:11;14.23;;;2.42;;
44670;SDS011;48397;53.016;-2.260;2022-08-19T09:18:24;24.17;;;3.22;;
44670;SDS011;48397;53.016;-2.260;2022-08-19T09:20:55;12.43;;;2.95;;
44670;SDS011;48397;53.016;-2.260;2022-08-19T09:23:23;13.57;;;2.25;;
44670;SDS011;48397;53.016;-2.260;2022-08-19T09:25:53;12.63;;;2.70;;
44670;SDS011;48397;53.016;-2.260;2022-08-19T09:28:21;9.65;;;1.90;;
44670;SDS011;48397;53.016;-2.260;2022-08-19T09:30:53;10.80;;;2.47;;
44670;SDS011;48397;53.016;-2.260;2022-08-19T09:33:21;13.57;;;2.30;;
44670;SDS011;48397;53.016;-2.260;2022-08-19T09:35:49;8.20;;;1.70;;
44670;SDS011;48397;53.016;-2.260;2022-08-19T09:38:20;11.15;;;2.75;;
44670;SDS011;48397;53.016;-2.260;2022-08-19T09:42:34;26.40;;;3.40;;
44670;SDS011;48397;53.016;-2.260;2022-08-19T09:45:03;13.25;;;2.22;;
44670;SDS011;48397;53.016;-2.260;2022-08-19T09:47:36;13.82;;;2.40;;
44670;SDS011;48397;53.016;-2.260;2022-08-19T09:50:07;16.63;;;2.50;;
44670;SDS011;48397;53.016;-2.260;2022-08-19T09:52:42;11.32;;;2.50;;
44670;SDS011;48397;53.016;-2.260;2022-08-19T09:55:23;13.27;;;2.03;;
44670;SDS011;48397;53.016;-2.260;2022-08-19T09:57:59;18.33;;;2.60;;
44670;SDS011;48397;53.016;-2.260;2022-08-19T10:00:28;8.65;;;1.73;;
44670;SDS011;48397;53.016;-2.260;2022-08-19T10:02:58;9.00;;;2.50;;
44670;SDS011;48397;53.016;-2.260;2022-08-19T10:05:27;16.25;;;2.38;;
44670;SDS011;48397;53.016;-2.260;2022-08-19T10:08:19;8.55;;;1.77;;
44670;SDS011;48397;53.016;-2.260;2022-08-19T10:10:53;7.32;;;1.25;;
44670;SDS011;48397;53.016;-2.260;2022-08-19T10:13:23;3.88;;;1.85;;
44670;SDS011;48397;53.016;-2.260;2022-08-19T10:15:54;11.73;;;1.70;;
44670;SDS011;48397;53.016;-2.260;2022-08-19T10:18:24;7.90;;;1.83;;
44670;SDS011;48397;53.016;-2.260;2022-08-19T10:21:01;11.63;;;2.75;;
44670;SDS011;48397;53.016;-2.260;2022-08-19T10:23:38;10.32;;;2.38;;
44670;SDS011;48397;53.016;-2.260;2022-08-19T10:26:14;18.75;;;2.85;;
44670;SDS011;48397;53.016;-2.260;2022-08-19T10:28:47;11.90;;;2.42;;
44670;SDS011;48397;53.016;-2.260;2022-08-19T10:31:17;17.17;;;2.80;;
44670;SDS011;48397;53.016;-2.260;2022-08-19T10:34:08;10.38;;;2.10;;
44670;SDS011;48397;53.016;-2.260;2022-08-19T10:36:52;14.00;;;3.03;;
44670;SDS011;48397;53.016;-2.260;2022-08-19T10:39:26;17.58;;;2.83;;
44670;SDS011;48397;53.016;-2.260;2022-08-19T10:42:09;10.13;;;2.47;;
44670;SDS011;48397;53.016;-2.260;2022-08-19T10:44:37;10.32;;;1.90;;
44670;SDS011;48397;53.016;-2.260;2022-08-19T10:47:06;9.57;;;1.60;;
44670;SDS011;48397;53.016;-2.260;2022-08-19T10:49:50;16.73;;;2.58;;
44670;SDS011;48397;53.016;-2.260;2022-08-19T10:52:43;7.43;;;1.80;;
44670;SDS011;48397;53.016;-2.260;2022-08-19T10:58:14;8.00;;;1.92;;
44670;SDS011;48397;53.016;-2.260;2022-08-19T11:00:53;18.58;;;3.05;;
44670;SDS011;48397;53.016;-2.260;2022-08-19T11:03:23;14.15;;;2.42;;
44670;SDS011;48397;53.016;-2.260;2022-08-19T11:06:03;10.90;;;1.90;;
44670;SDS011;48397;53.016;-2.260;2022-08-19T11:08:33;13.13;;;2.15;;
44670;SDS011;48397;53.016;-2.260;2022-08-19T11:11:02;10.15;;;2.65;;
44670;SDS011;48397;53.016;-2.260;2022-08-19T11:13:31;13.65;;;3.13;;
44670;SDS011;48397;53.016;-2.260;2022-08-19T11:16:03;9.35;;;2.13;;
44670;SDS011;48397;53.016;-2.260;2022-08-19T11:18:35;16.95;;;2.78;;
44670;SDS011;48397;53.016;-2.260;2022-08-19T11:21:06;16.77;;;2.95;;
44670;SDS011;48397;53.016;-2.260;2022-08-19T11:23:44;14.77;;;2.95;;
44670;SDS011;48397;53.016;-2.260;2022-08-19T11:26:14;25.90;;;3.30;;
44670;SDS011;48397;53.016;-2.260;2022-08-19T11:28:43;11.32;;;2.70;;
44670;SDS011;48397;53.016;-2.260;2022-08-19T11:33:43;11.63;;;2.88;;
44670;SDS011;48397;53.016;-2.260;2022-08-19T11:36:14;12.10;;;2.13;;
44670;SDS011;48397;53.016;-2.260;2022-08-19T11:38:44;5.65;;;1.70;;
44670;SDS011;48397;53.016;-2.260;2022-08-19T11:41:12;8.18;;;2.50;;
44670;SDS011;48397;53.016;-2.260;2022-08-19T11:46:09;13.15;;;2.38;;
44670;SDS011;48397;53.016;-2.260;2022-08-19T11:48:39;17.13;;;2.20;;
44670;SDS011;48397;53.016;-2.260;2022-08-19T11:51:08;9.55;;;1.50;;
44670;SDS011;48397;53.016;-2.260;2022-08-19T11:53:38;11.50;;;2.88;;
44670;SDS011;48397;53.016;-2.260;2022-08-19T11:56:07;12.18;;;2.70;;
44670;SDS011;48397;53.016;-2.260;2022-08-19T11:58:36;14.38;;;2.00;;
44670;SDS011;48397;53.016;-2.260;2022-08-19T12:01:05;12.50;;;2.40;;
44670;SDS011;48397;53.016;-2.260;2022-08-19T12:03:35;12.57;;;2.20;;
44670;SDS011;48397;53.016;-2.260;2022-08-19T12:06:06;6.40;;;1.10;;
44670;SDS011;48397;53.016;-2.260;2022-08-19T12:08:40;11.83;;;1.60;;
44670;SDS011;48397;53.016;-2.260;2022-08-19T12:11:09;8.90;;;1.67;;
44670;SDS011;48397;53.016;-2.260;2022-08-19T12:13:38;8.48;;;2.00;;
44670;SDS011;48397;53.016;-2.260;2022-08-19T12:16:08;10.27;;;1.48;;
44670;SDS011;48397;53.016;-2.260;2022-08-19T12:18:39;6.18;;;2.15;;
44670;SDS011;48397;53.016;-2.260;2022-08-19T12:21:14;10.35;;;2.00;;
44670;SDS011;48397;53.016;-2.260;2022-08-19T12:23:44;10.25;;;1.70;;
44670;SDS011;48397;53.016;-2.260;2022-08-19T12:26:12;16.05;;;3.13;;
44670;SDS011;48397;53.016;-2.260;2022-08-19T12:28:40;6.35;;;1.95;;
44670;SDS011;48397;53.016;-2.260;2022-08-19T12:31:09;16.85;;;1.90;;
44670;SDS011;48397;53.016;-2.260;2022-08-19T12:33:41;16.02;;;2.67;;
44670;SDS011;48397;53.016;-2.260;2022-08-19T12:36:11;11.27;;;2.05;;
44670;SDS011;48397;53.016;-2.260;2022-08-19T12:38:40;8.30;;;1.88;;
44670;SDS011;48397;53.016;-2.260;2022-08-19T12:41:10;8.90;;;1.77;;
44670;SDS011;48397;53.016;-2.260;2022-08-19T12:43:40;6.70;;;1.63;;
44670;SDS011;48397;53.016;-2.260;2022-08-19T12:46:09;16.88;;;3.20;;
44670;SDS011;48397;53.016;-2.260;2022-08-19T12:48:37;16.00;;;2.50;;
44670;SDS011;48397;53.016;-2.260;2022-08-19T12:51:10;15.45;;;2.10;;
44670;SDS011;48397;53.016;-2.260;2022-08-19T12:53:40;5.53;;;1.48;;
44670;SDS011;48397;53.016;-2.260;2022-08-19T12:56:09;8.82;;;1.95;;
44670;SDS011;48397;53.016;-2.260;2022-08-19T12:58:39;6.60;;;1.83;;
44670;SDS011;48397;53.016;-2.260;2022-08-19T13:01:17;11.30;;;1.95;;
44670;SDS011;48397;53.016;-2.260;2022-08-19T13:03:49;15.25;;;2.38;;
44670;SDS011;48397;53.016;-2.260;2022-08-19T13:06:20;15.38;;;2.42;;
44670;SDS011;48397;53.016;-2.260;2022-08-19T13:08:48;14.20;;;3.05;;
44670;SDS011;48397;53.016;-2.260;2022-08-19T13:11:17;13.38;;;2.85;;
44670;SDS011;48397;53.016;-2.260;2022-08-19T13:13:47;12.48;;;2.42;;
44670;SDS011;48397;53.016;-2.260;2022-08-19T13:16:17;10.98;;;2.10;;
44670;SDS011;48397;53.016;-2.260;2022-08-19T13:18:47;8.63;;;1.50;;
44670;SDS011;48397;53.016;-2.260;2022-08-19T13:21:15;10.15;;;3.22;;
44670;SDS011;48397;53.016;-2.260;2022-08-19T13:23:46;9.10;;;1.65;;
44670;SDS011;48397;53.016;-2.260;2022-08-19T13:26:16;20.90;;;4.05;;
44670;SDS011;48397;53.016;-2.260;2022-08-19T13:28:44;9.63;;;2.00;;
44670;SDS011;48397;53.016;-2.260;2022-08-19T13:31:32;7.00;;;1.50;;
44670;SDS011;48397;53.016;-2.260;2022-08-19T13:34:31;6.00;;;1.40;;
44670;SDS011;48397;53.016;-2.260;2022-08-19T13:37:01;5.95;;;1.75;;
44670;SDS011;48397;53.016;-2.260;2022-08-19T13:39:31;8.55;;;1.48;;
44670;SDS011;48397;53.016;-2.260;2022-08-19T13:42:00;6.95;;;1.55;;
44670;SDS011;48397;53.016;-2.260;2022-08-19T13:44:28;10.57;;;1.73;;
44670;SDS011;48397;53.016;-2.260;2022-08-19T13:47:00;23.33;;;2.78;;
44670;SDS011;48397;53.016;-2.260;2022-08-19T13:49:37;10.85;;;2.15;;
44670;SDS011;48397;53.016;-2.260;2022-08-19T13:54:33;11.43;;;2.10;;
44670;SDS011;48397;53.016;-2.260;2022-08-19T13:59:28;18.75;;;2.35;;
44670;SDS011;48397;53.016;-2.260;2022-08-19T14:01:59;11.95;;;1.55;;
44670;SDS011;48397;53.016;-2.260;2022-08-19T14:04:27;14.55;;;2.28;;
44670;SDS011;48397;53.016;-2.260;2022-08-19T14:06:55;8.13;;;1.88;;
44670;SDS011;48397;53.016;-2.260;2022-08-19T14:11:52;28.17;;;4.53;;
44670;SDS011;48397;53.016;-2.260;2022-08-19T14:16:47;3.50;;;1.00;;
44670;SDS011;48397;53.016;-2.260;2022-08-19T14:19:15;4.93;;;0.90;;
44670;SDS011;48397;53.016;-2.260;2022-08-19T14:21:43;5.35;;;1.20;;
44670;SDS011;48397;53.016;-2.260;2022-08-19T14:24:11;8.02;;;1.45;;
44670;SDS011;48397;53.016;-2.260;2022-08-19T14:34:01;4.93;;;1.52;;
44670;SDS011;48397;53.016;-2.260;2022-08-19T14:39:04;5.25;;;1.08;;
44670;SDS011;48397;53.016;-2.260;2022-08-19T14:44:02;8.60;;;2.05;;
44670;SDS011;48397;53.016;-2.260;2022-08-19T14:46:29;7.20;;;1.58;;
44670;SDS011;48397;53.016;-2.260;2022-08-19T14:48:57;6.00;;;1.30;;
44670;SDS011;48397;53.016;-2.260;2022-08-19T14:51:26;16.95;;;2.28;;
44670;SDS011;48397;53.016;-2.260;2022-08-19T14:56:23;10.35;;;1.73;;
44670;SDS011;48397;53.016;-2.260;2022-08-19T14:58:55;27.40;;;3.63;;
44670;SDS011;48397;53.016;-2.260;2022-08-19T15:01:26;5.97;;;1.20;;
44670;SDS011;48397;53.016;-2.260;2022-08-19T15:03:54;8.15;;;1.40;;
44670;SDS011;48397;53.016;-2.260;2022-08-19T15:06:23;11.48;;;2.17;;
44670;SDS011;48397;53.016;-2.260;2022-08-19T15:08:51;20.05;;;2.25;;
44670;SDS011;48397;53.016;-2.260;2022-08-19T15:11:21;17.15;;;3.33;;
44670;SDS011;48397;53.016;-2.260;2022-08-19T15:13:51;3.75;;;1.02;;
44670;SDS011;48397;53.016;-2.260;2022-08-19T15:18:48;7.18;;;1.70;;
44670;SDS011;48397;53.016;-2.260;2022-08-19T15:21:17;10.75;;;1.30;;
44670;SDS011;48397;53.016;-2.260;2022-08-19T15:23:54;13.15;;;2.20;;
44670;SDS011;48397;53.016;-2.260;2022-08-19T15:26:24;10.63;;;1.83;;
44670;SDS011;48397;53.016;-2.260;2022-08-19T15:28:55;9.25;;;1.98;;
44670;SDS011;48397;53.016;-2.260;2022-08-19T15:31:23;5.57;;;1.23;;
44670;SDS011;48397;53.016;-2.260;2022-08-19T15:33:55;10.77;;;2.25;;
44670;SDS011;48397;53.016;-2.260;2022-08-19T15:36:25;7.90;;;1.60;;
44670;SDS011;48397;53.016;-2.260;2022-08-19T15:38:54;5.63;;;1.58;;
44670;SDS011;48397;53.016;-2.260;2022-08-19T15:41:25;8.10;;;1.73;;
44670;SDS011;48397;53.016;-2.260;2022-08-19T15:44:03;5.45;;;1.85;;
44670;SDS011;48397;53.016;-2.260;2022-08-19T15:46:38;3.40;;;1.05;;
44670;SDS011;48397;53.016;-2.260;2022-08-19T15:49:08;7.72;;;1.73;;
44670;SDS011;48397;53.016;-2.260;2022-08-19T15:51:39;5.60;;;1.50;;
44670;SDS011;48397;53.016;-2.260;2022-08-19T15:54:10;6.47;;;1.40;;
44670;SDS011;48397;53.016;-2.260;2022-08-19T15:56:41;8.85;;;1.52;;
44670;SDS011;48397;53.016;-2.260;2022-08-19T15:59:38;6.80;;;1.40;;
44670;SDS011;48397;53.016;-2.260;2022-08-19T16:02:30;4.50;;;1.38;;
44670;SDS011;48397;53.016;-2.260;2022-08-19T16:05:21;5.85;;;1.33;;
44670;SDS011;48397;53.016;-2.260;2022-08-19T16:10:33;5.10;;;1.30;;
44670;SDS011;48397;53.016;-2.260;2022-08-19T16:13:02;5.15;;;1.20;;
44670;SDS011;48397;53.016;-2.260;2022-08-19T16:15:32;5.38;;;1.35;;